Time;durP1;ratioP1;P1;durP2;ratioP2;P2;SDS_P1;SDS_P2;PMS_P1;PMS_P2;Temp;Humidity;BMP_temperature;BMP_pressure;BME280_temperature;BME280_humidity;BME280_pressure;Samples;Min_cycle;Max_cycle;Signal;HPM_P1;HPM_P2
2024/01/04 00:01:45;;;;;;;1.23;0.70;;;6.90;99.90;;;;;;5019242;28;20097;-31
2024/01/04 00:04:13;;;;;;;1.65;0.60;;;6.90;99.90;;;;;;5015335;28;20316;-32
2024/01/04 00:06:44;;;;;;;;;;;6.90;99.90;;;;;;5016445;28;20053;-34
2024/01/04 00:09:11;;;;;;;1.63;0.60;;;6.90;99.90;;;;;;5021233;28;19924;-32
2024/01/04 00:11:37;;;;;;;0.63;0.63;;;6.90;99.90;;;;;;5016223;28;20033;-34
2024/01/04 00:14:06;;;;;;;0.60;0.60;;;6.80;99.90;;;;;;5017917;28;20040;-31
2024/01/04 00:16:35;;;;;;;0.80;0.80;;;6.80;99.90;;;;;;5015116;28;20052;-33
2024/01/04 00:19:14;;;;;;;0.73;0.65;;;6.90;99.90;;;;;;5005598;28;20095;-35
2024/01/04 00:21:43;;;;;;;3.63;0.70;;;6.90;99.90;;;;;;5016828;28;20025;-32
2024/01/04 00:24:10;;;;;;;1.30;0.82;;;6.90;99.90;;;;;;5022354;28;20041;-33
2024/01/04 00:26:35;;;;;;;1.63;0.70;;;6.90;99.90;;;;;;5013822;28;20030;-33
2024/01/04 00:29:01;;;;;;;2.72;0.70;;;6.90;99.90;;;;;;5016002;28;20064;-33
2024/01/04 00:31:27;;;;;;;0.75;0.70;;;6.80;99.90;;;;;;5019123;28;20135;-32
2024/01/04 00:33:53;;;;;;;1.00;0.80;;;6.90;99.90;;;;;;5020008;28;20617;-38
2024/01/04 00:36:19;;;;;;;1.95;0.80;;;6.90;99.90;;;;;;5023698;28;20033;-32
2024/01/04 00:38:45;;;;;;;3.35;0.80;;;6.90;99.90;;;;;;5023721;28;20051;-32
2024/01/04 00:41:14;;;;;;;0.70;0.70;;;7.00;99.90;;;;;;5012745;28;20118;-34
2024/01/04 00:43:40;;;;;;;0.77;0.77;;;7.00;99.90;;;;;;5020297;28;20057;-32
2024/01/04 00:46:05;;;;;;;1.08;0.68;;;7.10;99.90;;;;;;5024685;28;20040;-32
2024/01/04 00:48:31;;;;;;;1.95;0.68;;;7.10;99.90;;;;;;5018985;28;20031;-35
2024/01/04 00:50:58;;;;;;;1.13;0.80;;;7.20;99.90;;;;;;5020878;28;20631;-33
2024/01/04 00:53:24;;;;;;;0.50;0.50;;;7.20;99.90;;;;;;5020523;28;20037;-35
2024/01/04 00:55:50;;;;;;;2.63;1.05;;;7.20;99.90;;;;;;5016239;28;20022;-33
2024/01/04 00:58:25;;;;;;;0.80;0.55;;;7.20;99.90;;;;;;5021677;28;20407;-32
2024/01/04 01:00:51;;;;;;;0.75;0.65;;;7.20;99.90;;;;;;5016178;28;20101;-33
2024/01/04 01:03:17;;;;;;;1.90;0.60;;;7.10;99.90;;;;;;5020023;28;20038;-32
2024/01/04 01:05:44;;;;;;;0.75;0.73;;;7.10;99.90;;;;;;5016094;28;20076;-32
2024/01/04 01:08:10;;;;;;;2.92;0.77;;;7.10;99.90;;;;;;5008403;28;20587;-32
2024/01/04 01:10:36;;;;;;;2.42;0.50;;;7.20;99.90;;;;;;5017085;28;20030;-32
2024/01/04 01:13:02;;;;;;;0.70;0.70;;;7.20;99.90;;;;;;5019907;28;20048;-32
2024/01/04 01:15:29;;;;;;;1.95;0.80;;;7.30;99.90;;;;;;5013734;28;20037;-36
2024/01/04 01:17:55;;;;;;;2.05;0.57;;;7.30;99.90;;;;;;5001481;28;20112;-35
2024/01/04 01:20:21;;;;;;;0.73;0.43;;;7.30;99.90;;;;;;5017721;28;20488;-32
2024/01/04 01:22:47;;;;;;;0.45;0.45;;;7.30;99.90;;;;;;5019065;28;20109;-32
2024/01/04 01:25:13;;;;;;;0.50;0.50;;;7.30;99.90;;;;;;5016543;28;20037;-35
2024/01/04 01:27:39;;;;;;;0.60;0.55;;;7.30;99.90;;;;;;5017884;28;20026;-35
2024/01/04 01:30:06;;;;;;;0.50;0.50;;;7.30;99.90;;;;;;5013827;28;20049;-36
2024/01/04 01:32:32;;;;;;;1.75;0.50;;;7.30;99.90;;;;;;5021437;28;20030;-33
2024/01/04 01:34:58;;;;;;;0.82;0.60;;;7.30;99.90;;;;;;5018021;28;20041;-31
2024/01/04 01:37:24;;;;;;;3.20;0.70;;;7.30;99.90;;;;;;5023062;28;20038;-32
2024/01/04 01:39:50;;;;;;;1.48;0.70;;;7.20;99.90;;;;;;5022881;28;20033;-31
2024/01/04 01:42:20;;;;;;;1.65;0.77;;;7.30;99.90;;;;;;5020619;28;20025;-33
2024/01/04 01:44:53;;;;;;;1.30;0.70;;;7.40;99.90;;;;;;5024087;28;20053;-35
2024/01/04 01:47:24;;;;;;;1.52;0.50;;;7.40;99.90;;;;;;5021016;28;20151;-33
2024/01/04 01:49:50;;;;;;;0.65;0.63;;;7.40;99.90;;;;;;5016834;28;20670;-32
2024/01/04 01:52:17;;;;;;;0.80;0.80;;;7.40;99.90;;;;;;5018732;28;20025;-32
2024/01/04 01:54:43;;;;;;;1.40;0.70;;;7.40;99.90;;;;;;5034081;28;20170;-33
2024/01/04 01:57:09;;;;;;;2.30;0.75;;;7.40;99.90;;;;;;5018084;28;20061;-33
2024/01/04 01:59:36;;;;;;;1.42;0.88;;;7.40;99.90;;;;;;5021277;28;20073;-35
2024/01/04 02:02:02;;;;;;;0.70;0.60;;;7.40;99.90;;;;;;5023074;28;20037;-33
2024/01/04 02:04:28;;;;;;;1.75;0.50;;;7.40;99.90;;;;;;5019919;28;20025;-36
2024/01/04 02:06:54;;;;;;;0.60;0.60;;;7.40;99.90;;;;;;5019580;28;20030;-34
2024/01/04 02:09:20;;;;;;;1.77;0.63;;;7.30;99.90;;;;;;5022687;28;20037;-32
2024/01/04 02:11:46;;;;;;;1.02;0.73;;;7.40;99.90;;;;;;5031147;28;20419;-31
2024/01/04 02:14:11;;;;;;;3.55;0.68;;;7.30;99.90;;;;;;5021915;28;20036;-32
2024/01/04 02:16:37;;;;;;;0.68;0.50;;;7.30;99.90;;;;;;5022690;28;20506;-35
2024/01/04 02:19:07;;;;;;;1.45;0.80;;;7.30;99.90;;;;;;5025018;28;20037;-31
2024/01/04 02:21:37;;;;;;;2.05;0.98;;;7.40;99.90;;;;;;5010881;28;20472;-32
2024/01/04 02:24:04;;;;;;;4.45;0.80;;;7.40;99.90;;;;;;5016129;28;20021;-30
2024/01/04 02:26:29;;;;;;;2.10;0.70;;;7.40;99.90;;;;;;5027271;28;20033;-34
2024/01/04 02:28:55;;;;;;;0.90;0.82;;;7.40;99.90;;;;;;5020789;28;20048;-31
2024/01/04 02:31:20;;;;;;;2.85;0.68;;;7.50;99.90;;;;;;5024004;28;20356;-31
2024/01/04 02:33:46;;;;;;;1.23;0.77;;;7.40;99.90;;;;;;5013470;28;20573;-32
2024/01/04 02:36:11;;;;;;;1.02;0.82;;;7.40;99.90;;;;;;5024573;28;20435;-34
2024/01/04 02:38:37;;;;;;;1.20;0.60;;;7.50;99.90;;;;;;5016827;28;20032;-33
2024/01/04 02:41:03;;;;;;;2.58;1.08;;;7.50;99.90;;;;;;5023539;28;20028;-30
2024/01/04 02:43:28;;;;;;;3.95;0.77;;;7.50;99.90;;;;;;5020061;28;20068;-35
2024/01/04 02:45:54;;;;;;;3.08;1.08;;;7.50;99.90;;;;;;5018494;28;20558;-31
2024/01/04 02:48:20;;;;;;;0.98;0.80;;;7.50;99.90;;;;;;5020605;28;20379;-34
2024/01/04 02:50:45;;;;;;;3.25;1.02;;;7.50;99.90;;;;;;5014536;28;20037;-34
2024/01/04 02:53:11;;;;;;;2.63;1.13;;;7.50;99.90;;;;;;5016669;28;20388;-32
2024/01/04 02:55:36;;;;;;;1.30;1.20;;;7.50;99.90;;;;;;5016186;28;20041;-33
2024/01/04 02:58:02;;;;;;;0.85;0.80;;;7.50;99.90;;;;;;5026517;28;20095;-31
2024/01/04 03:00:27;;;;;;;4.15;0.80;;;7.50;99.90;;;;;;5025155;28;20448;-35
2024/01/04 03:02:53;;;;;;;2.30;0.82;;;7.50;99.90;;;;;;5022400;28;20018;-33
2024/01/04 03:05:18;;;;;;;1.42;1.20;;;7.50;99.90;;;;;;5017447;28;20435;-34
2024/01/04 03:07:44;;;;;;;1.90;1.02;;;7.50;99.90;;;;;;5022388;28;20077;-32
2024/01/04 03:10:10;;;;;;;3.75;1.02;;;7.50;99.90;;;;;;5024494;28;20586;-33
2024/01/04 03:12:37;;;;;;;0.52;0.52;;;7.50;99.90;;;;;;5019558;28;20030;-32
2024/01/04 03:15:08;;;;;;;3.03;0.68;;;7.50;99.90;;;;;;5009772;28;20124;-32
2024/01/04 03:17:33;;;;;;;3.08;1.50;;;7.50;99.90;;;;;;5019312;28;20479;-34
2024/01/04 03:19:59;;;;;;;1.80;0.90;;;7.50;99.90;;;;;;5017041;28;20036;-32
2024/01/04 03:22:25;;;;;;;1.02;0.70;;;7.50;99.90;;;;;;5020601;28;20037;-31
2024/01/04 03:24:51;;;;;;;0.50;0.50;;;7.50;99.90;;;;;;5021134;28;20083;-34
2024/01/04 03:27:17;;;;;;;2.45;0.60;;;7.60;99.90;;;;;;5020850;28;20458;-32
2024/01/04 03:29:43;;;;;;;2.30;1.15;;;7.60;99.90;;;;;;5014836;28;20114;-33
2024/01/04 03:32:09;;;;;;;1.08;0.50;;;7.60;99.90;;;;;;5021107;28;20046;-33
2024/01/04 03:34:35;;;;;;;1.35;0.47;;;7.50;99.90;;;;;;5011796;28;20729;-32
2024/01/04 03:37:02;;;;;;;0.93;0.65;;;7.50;99.90;;;;;;5020901;28;20516;-33
2024/01/04 03:39:28;;;;;;;2.13;0.73;;;7.50;99.90;;;;;;5021520;28;20064;-33
2024/01/04 03:41:53;;;;;;;0.52;0.50;;;7.40;99.90;;;;;;5021268;28;20041;-33
2024/01/04 03:44:20;;;;;;;1.45;0.60;;;7.50;99.90;;;;;;5017645;28;20563;-32
2024/01/04 03:46:46;;;;;;;0.60;0.50;;;7.40;99.90;;;;;;5007279;28;20117;-32
2024/01/04 03:49:12;;;;;;;0.85;0.70;;;7.40;99.90;;;;;;5019863;28;20160;-32
2024/01/04 03:51:39;;;;;;;0.47;0.43;;;7.40;99.90;;;;;;5021957;28;20033;-32
2024/01/04 03:54:05;;;;;;;0.90;0.65;;;7.40;99.90;;;;;;5018869;28;20168;-35
2024/01/04 03:56:31;;;;;;;0.50;0.50;;;7.40;99.90;;;;;;5015754;28;20104;-32
2024/01/04 03:58:57;;;;;;;3.05;0.57;;;7.40;99.90;;;;;;5017446;28;20026;-32
2024/01/04 04:01:22;;;;;;;0.70;0.70;;;7.30;99.90;;;;;;5024110;28;20089;-32
2024/01/04 04:03:48;;;;;;;0.40;0.40;;;7.30;99.90;;;;;;5021586;28;20028;-33
2024/01/04 04:06:19;;;;;;;0.40;0.40;;;7.20;99.90;;;;;;5017141;28;20483;-34
2024/01/04 04:08:45;;;;;;;0.80;0.50;;;7.20;99.90;;;;;;5021878;28;20025;-32
2024/01/04 04:11:17;;;;;;;1.05;0.52;;;7.10;99.90;;;;;;5021845;28;20387;-32
2024/01/04 04:13:46;;;;;;;1.85;0.52;;;7.10;99.90;;;;;;5015499;28;20025;-32
2024/01/04 04:16:12;;;;;;;0.90;0.60;;;7.10;99.90;;;;;;5018521;28;20026;-32
2024/01/04 04:18:38;;;;;;;1.15;0.73;;;7.10;99.90;;;;;;5014650;28;20018;-36
2024/01/04 04:21:04;;;;;;;1.85;0.68;;;7.10;99.90;;;;;;5021150;28;20022;-33
2024/01/04 04:23:31;;;;;;;0.63;0.50;;;7.10;99.90;;;;;;5018898;28;20514;-33
2024/01/04 04:25:57;;;;;;;0.40;0.40;;;7.10;99.90;;;;;;5015359;28;20021;-32
2024/01/04 04:28:24;;;;;;;1.55;0.45;;;7.20;99.90;;;;;;5015191;28;20511;-32
2024/01/04 04:30:49;;;;;;;0.50;0.50;;;7.20;99.90;;;;;;5024833;28;20037;-31
2024/01/04 04:33:15;;;;;;;0.70;0.52;;;7.20;99.90;;;;;;5019471;28;20045;-34
2024/01/04 04:35:40;;;;;;;1.52;0.60;;;7.20;99.90;;;;;;5022921;28;20061;-31
2024/01/04 04:38:06;;;;;;;1.77;0.90;;;7.30;99.90;;;;;;5022807;28;20045;-32
2024/01/04 04:40:32;;;;;;;0.70;0.70;;;7.20;99.90;;;;;;5015950;28;20018;-31
2024/01/04 04:42:57;;;;;;;0.80;0.70;;;7.10;99.90;;;;;;5015202;28;20053;-31
2024/01/04 04:45:23;;;;;;;0.93;0.50;;;7.10;99.90;;;;;;5020073;28;20010;-32
2024/01/04 04:47:48;;;;;;;0.40;0.40;;;7.10;99.90;;;;;;5022108;28;20034;-32
2024/01/04 04:50:14;;;;;;;0.50;0.50;;;7.00;99.90;;;;;;5022183;28;20029;-30
2024/01/04 04:52:39;;;;;;;1.77;0.85;;;6.90;99.90;;;;;;5021039;28;20036;-31
2024/01/04 04:55:05;;;;;;;1.92;0.82;;;6.90;99.90;;;;;;5026817;28;20052;-31
2024/01/04 04:57:31;;;;;;;3.20;0.90;;;6.90;99.90;;;;;;5019818;28;20088;-33
2024/01/04 04:59:57;;;;;;;0.60;0.60;;;6.90;99.90;;;;;;5022203;28;20067;-33
2024/01/04 05:02:22;;;;;;;1.90;0.50;;;6.80;99.90;;;;;;5016847;28;20045;-31
2024/01/04 05:04:48;;;;;;;1.95;0.60;;;6.80;99.90;;;;;;5021051;28;20569;-32
2024/01/04 05:07:14;;;;;;;0.50;0.50;;;6.80;99.90;;;;;;5020467;28;20091;-32
2024/01/04 05:09:39;;;;;;;1.75;0.75;;;6.80;99.90;;;;;;5020632;28;20041;-34
2024/01/04 05:12:05;;;;;;;0.90;0.70;;;6.80;99.90;;;;;;5016099;28;20034;-32
2024/01/04 05:14:31;;;;;;;2.03;0.98;;;6.80;99.90;;;;;;5020981;28;20041;-31
2024/01/04 05:16:56;;;;;;;0.68;0.50;;;6.80;99.90;;;;;;5020109;28;20075;-31
2024/01/04 05:19:22;;;;;;;0.82;0.70;;;6.80;99.90;;;;;;5017232;28;20029;-32
2024/01/04 05:21:47;;;;;;;0.60;0.60;;;6.80;99.90;;;;;;5023002;28;20013;-33
2024/01/04 05:24:13;;;;;;;1.88;0.77;;;6.80;99.90;;;;;;5015087;28;20617;-31
2024/01/04 05:26:38;;;;;;;1.70;0.57;;;6.80;99.90;;;;;;5017658;28;20654;-38
2024/01/04 05:29:05;;;;;;;0.70;0.70;;;6.80;99.90;;;;;;5018610;28;20445;-32
2024/01/04 05:31:30;;;;;;;0.55;0.55;;;6.80;99.90;;;;;;5024928;28;20034;-31
2024/01/04 05:33:56;;;;;;;0.70;0.70;;;6.80;99.90;;;;;;5016616;28;20041;-32
2024/01/04 05:36:23;;;;;;;3.10;0.70;;;6.70;99.90;;;;;;5015293;28;20057;-33
2024/01/04 05:38:49;;;;;;;1.25;0.50;;;6.70;99.90;;;;;;5016821;28;20040;-31
2024/01/04 05:41:14;;;;;;;3.08;0.85;;;6.70;99.90;;;;;;5017826;28;20084;-42
2024/01/04 05:43:40;;;;;;;1.25;0.70;;;6.70;99.90;;;;;;5019753;28;20120;-39
2024/01/04 05:46:05;;;;;;;2.13;0.77;;;6.70;99.90;;;;;;5021402;28;20048;-36
2024/01/04 05:48:32;;;;;;;1.40;1.15;;;6.70;99.90;;;;;;5018400;28;20037;-40
2024/01/04 05:50:57;;;;;;;2.63;0.70;;;6.70;99.90;;;;;;5016994;28;20400;-39
2024/01/04 05:53:23;;;;;;;2.58;0.90;;;6.70;99.90;;;;;;5016504;28;20029;-40
2024/01/04 05:55:48;;;;;;;1.25;0.90;;;6.70;99.90;;;;;;5014385;28;20040;-41
2024/01/04 05:58:14;;;;;;;1.17;0.77;;;6.80;99.90;;;;;;5013901;28;20041;-41
2024/01/04 06:00:40;;;;;;;3.67;0.82;;;6.70;99.90;;;;;;5012079;28;20112;-38
2024/01/04 06:03:05;;;;;;;0.65;0.65;;;6.70;99.90;;;;;;5014384;28;20038;-39
2024/01/04 06:05:31;;;;;;;1.23;0.77;;;6.70;99.90;;;;;;5014707;28;20026;-39
2024/01/04 06:07:56;;;;;;;1.02;0.50;;;6.80;99.90;;;;;;5016771;28;20150;-39
2024/01/04 06:10:22;;;;;;;1.55;0.50;;;6.70;99.90;;;;;;5017423;28;20025;-41
2024/01/04 06:12:47;;;;;;;1.45;0.70;;;6.80;99.90;;;;;;5018798;28;20017;-42
2024/01/04 06:15:13;;;;;;;1.55;0.60;;;6.80;99.90;;;;;;5013078;28;20398;-42
2024/01/04 06:17:39;;;;;;;0.60;0.60;;;6.90;99.90;;;;;;5015226;28;20749;-38
2024/01/04 06:20:05;;;;;;;0.70;0.70;;;6.90;99.90;;;;;;5020439;28;20030;-41
2024/01/04 06:22:30;;;;;;;0.47;0.47;;;6.90;99.90;;;;;;5020455;28;20073;-39
2024/01/04 06:24:56;;;;;;;1.15;0.60;;;6.80;99.90;;;;;;5022750;28;20164;-41
2024/01/04 06:27:21;;;;;;;0.80;0.50;;;6.90;99.90;;;;;;5016785;28;20032;-40
2024/01/04 06:29:47;;;;;;;1.38;0.70;;;6.90;99.90;;;;;;5019247;28;20041;-41
2024/01/04 06:32:12;;;;;;;0.70;0.55;;;6.90;99.90;;;;;;5018586;28;20560;-41
2024/01/04 06:34:38;;;;;;;2.22;0.60;;;6.90;99.90;;;;;;5018822;28;20523;-40
2024/01/04 06:37:04;;;;;;;1.73;0.70;;;6.90;99.90;;;;;;5019139;28;20037;-40
2024/01/04 06:39:29;;;;;;;0.98;0.60;;;6.90;99.90;;;;;;5017970;28;20030;-35
2024/01/04 06:41:56;;;;;;;0.85;0.40;;;6.90;99.90;;;;;;5024342;28;20026;-38
2024/01/04 06:44:22;;;;;;;0.93;0.50;;;7.00;99.90;;;;;;5017500;28;20491;-40
2024/01/04 06:46:47;;;;;;;0.43;0.43;;;7.00;99.90;;;;;;5020004;28;20131;-41
2024/01/04 06:49:13;;;;;;;1.25;0.90;;;7.00;99.90;;;;;;5019287;28;20164;-40
2024/01/04 06:51:39;;;;;;;0.43;0.43;;;7.00;99.90;;;;;;5018561;28;20554;-32
2024/01/04 06:54:04;;;;;;;1.55;1.05;;;7.00;99.90;;;;;;5018693;28;20038;-35
2024/01/04 06:56:30;;;;;;;2.60;0.73;;;7.00;99.90;;;;;;5022672;28;20387;-30
2024/01/04 06:58:56;;;;;;;2.63;0.77;;;7.00;99.90;;;;;;5019458;28;20664;-33
2024/01/04 07:01:21;;;;;;;0.60;0.60;;;7.00;99.90;;;;;;5023426;28;20038;-33
2024/01/04 07:03:48;;;;;;;1.02;0.50;;;7.10;99.90;;;;;;5023123;28;20464;-32
2024/01/04 07:06:13;;;;;;;1.20;0.90;;;7.00;99.90;;;;;;5018226;28;20054;-32
2024/01/04 07:08:39;;;;;;;1.02;0.80;;;7.10;99.90;;;;;;5017101;28;20126;-32
2024/01/04 07:11:05;;;;;;;0.55;0.55;;;7.10;99.90;;;;;;5028234;28;20163;-31
2024/01/04 07:13:33;;;;;;;0.70;0.70;;;7.10;99.90;;;;;;5023514;28;20045;-31
2024/01/04 07:15:58;;;;;;;1.35;0.77;;;7.10;99.90;;;;;;5019697;28;20040;-31
2024/01/04 07:18:24;;;;;;;0.70;0.68;;;7.10;99.90;;;;;;5022689;28;20053;-31
2024/01/04 07:20:49;;;;;;;1.75;0.70;;;7.10;99.90;;;;;;5017060;28;20465;-31
2024/01/04 07:23:17;;;;;;;0.90;0.77;;;7.10;99.90;;;;;;5021200;28;20026;-31
2024/01/04 07:25:43;;;;;;;0.47;0.47;;;7.10;99.90;;;;;;5028138;28;20029;-31
2024/01/04 07:28:08;;;;;;;1.67;0.60;;;7.10;99.90;;;;;;5025463;28;20212;-33
2024/01/04 07:30:35;;;;;;;1.05;0.55;;;7.10;99.90;;;;;;5015551;28;20132;-31
2024/01/04 07:33:00;;;;;;;0.90;0.70;;;7.10;99.90;;;;;;5017867;28;20046;-32
2024/01/04 07:35:26;;;;;;;1.13;0.60;;;7.10;99.90;;;;;;5016184;28;20021;-32
2024/01/04 07:37:52;;;;;;;0.50;0.50;;;7.10;99.90;;;;;;5013790;28;20044;-31
2024/01/04 07:40:17;;;;;;;1.08;0.90;;;7.10;99.90;;;;;;5025429;28;20049;-30
2024/01/04 07:42:43;;;;;;;0.50;0.50;;;7.10;99.90;;;;;;5025656;28;20037;-31
2024/01/04 07:45:09;;;;;;;0.70;0.70;;;7.10;99.90;;;;;;5020373;28;20053;-32
2024/01/04 07:47:37;;;;;;;1.45;0.80;;;7.10;99.90;;;;;;5013844;28;20034;-31
2024/01/04 07:50:06;;;;;;;1.48;0.60;;;7.10;99.90;;;;;;5024178;28;20034;-33
2024/01/04 07:52:32;;;;;;;1.42;0.90;;;7.20;99.90;;;;;;5017619;28;20025;-32
2024/01/04 07:54:58;;;;;;;0.85;0.55;;;7.20;99.90;;;;;;5021182;28;20032;-31
2024/01/04 07:57:24;;;;;;;0.40;0.40;;;7.20;99.90;;;;;;5016189;28;20038;-32
2024/01/04 07:59:49;;;;;;;0.50;0.50;;;7.20;99.90;;;;;;5012647;28;20761;-32
2024/01/04 08:02:17;;;;;;;0.40;0.40;;;7.20;99.90;;;;;;5018349;28;20541;-33
2024/01/04 08:04:43;;;;;;;0.40;0.40;;;7.30;99.90;;;;;;5018828;28;20076;-33
2024/01/04 08:07:10;;;;;;;0.63;0.63;;;7.30;99.90;;;;;;5019233;28;20029;-32
2024/01/04 08:09:37;;;;;;;0.45;0.45;;;7.30;99.90;;;;;;5022729;28;20033;-34
2024/01/04 08:12:03;;;;;;;0.60;0.60;;;7.40;99.90;;;;;;5018285;28;20029;-32
2024/01/04 08:14:30;;;;;;;0.75;0.63;;;7.30;99.90;;;;;;5025090;28;20086;-36
2024/01/04 08:16:59;;;;;;;1.60;0.57;;;7.40;99.90;;;;;;5019742;28;20038;-36
2024/01/04 08:19:26;;;;;;;0.50;0.50;;;7.40;99.90;;;;;;5015788;28;20032;-34
2024/01/04 08:21:52;;;;;;;1.55;0.80;;;7.40;99.90;;;;;;5024848;28;20080;-33
2024/01/04 08:24:18;;;;;;;0.50;0.50;;;7.40;99.90;;;;;;5019324;28;20029;-33
2024/01/04 08:26:44;;;;;;;0.50;0.50;;;7.40;99.90;;;;;;5000021;28;20033;-33
2024/01/04 08:29:10;;;;;;;0.50;0.50;;;7.40;99.90;;;;;;5019785;28;20029;-33
2024/01/04 08:31:39;;;;;;;0.47;0.47;;;7.40;99.90;;;;;;5013207;28;20038;-35
2024/01/04 08:34:05;;;;;;;2.47;0.60;;;7.50;99.90;;;;;;5013595;28;20074;-34
2024/01/04 08:36:31;;;;;;;0.88;0.70;;;7.50;99.90;;;;;;5010122;28;20100;-32
2024/01/04 08:38:57;;;;;;;0.70;0.70;;;7.50;99.90;;;;;;5012218;28;20451;-34
2024/01/04 08:41:23;;;;;;;1.25;0.60;;;7.50;99.90;;;;;;5015741;28;20053;-32
2024/01/04 08:43:49;;;;;;;2.35;0.73;;;7.50;99.90;;;;;;5009245;28;21479;-31
2024/01/04 08:46:16;;;;;;;0.95;0.65;;;7.50;99.90;;;;;;5015489;28;20030;-34
2024/01/04 08:48:42;;;;;;;0.68;0.68;;;7.50;99.90;;;;;;5014034;28;20032;-32
2024/01/04 08:51:09;;;;;;;0.88;0.65;;;7.50;99.90;;;;;;5013276;28;20036;-34
2024/01/04 08:53:35;;;;;;;0.82;0.73;;;7.50;99.90;;;;;;5020382;28;20043;-35
2024/01/04 08:56:08;;;;;;;1.35;1.05;;;7.40;99.90;;;;;;5013383;28;20508;-33
2024/01/04 08:58:35;;;;;;;0.80;0.80;;;7.40;99.90;;;;;;5004576;28;20029;-32
2024/01/04 09:01:01;;;;;;;1.55;0.82;;;7.40;99.90;;;;;;5017478;28;20037;-35
2024/01/04 09:03:27;;;;;;;3.65;0.70;;;7.40;99.90;;;;;;5021208;28;20028;-38
2024/01/04 09:05:53;;;;;;;1.50;0.60;;;7.40;99.90;;;;;;5010805;28;20033;-34
2024/01/04 09:08:19;;;;;;;0.73;0.73;;;7.50;99.90;;;;;;5013217;28;20107;-32
2024/01/04 09:10:46;;;;;;;0.85;0.75;;;7.50;99.90;;;;;;5011054;28;20030;-37
2024/01/04 09:13:12;;;;;;;3.58;1.35;;;7.50;99.90;;;;;;5013053;28;20056;-40
2024/01/04 09:15:37;;;;;;;1.48;0.75;;;7.40;99.90;;;;;;5011022;28;20026;-38
2024/01/04 09:18:04;;;;;;;2.38;1.13;;;7.40;99.90;;;;;;5016405;28;20507;-38
2024/01/04 09:20:29;;;;;;;0.65;0.52;;;7.40;99.90;;;;;;5007510;28;20034;-39
2024/01/04 09:22:55;;;;;;;0.50;0.50;;;7.40;99.90;;;;;;5016368;28;20022;-36
2024/01/04 09:25:20;;;;;;;1.98;0.85;;;7.40;99.90;;;;;;5016074;28;20049;-40
2024/01/04 09:27:46;;;;;;;3.28;0.88;;;7.40;99.90;;;;;;5016404;28;20076;-39
2024/01/04 09:30:12;;;;;;;1.42;0.73;;;7.50;99.90;;;;;;5015265;28;20021;-40
2024/01/04 09:32:37;;;;;;;4.40;1.00;;;7.50;99.90;;;;;;5018470;28;20044;-39
2024/01/04 09:35:03;;;;;;;1.20;1.10;;;7.50;99.90;;;;;;5018900;28;20034;-40
2024/01/04 09:37:29;;;;;;;1.55;0.65;;;7.50;99.90;;;;;;5013441;28;20121;-39
2024/01/04 09:39:54;;;;;;;1.95;0.88;;;7.50;99.90;;;;;;5012841;28;20100;-39
2024/01/04 09:42:23;;;;;;;0.95;0.80;;;7.60;99.90;;;;;;5013987;28;20022;-38
2024/01/04 09:44:52;;;;;;;2.08;0.95;;;7.60;99.90;;;;;;5013155;28;20037;-40
2024/01/04 09:47:21;;;;;;;1.77;1.20;;;7.60;99.90;;;;;;5014942;28;20084;-40
2024/01/04 09:49:48;;;;;;;5.78;0.93;;;7.60;99.90;;;;;;5012623;28;20584;-39
2024/01/04 09:52:15;;;;;;;0.50;0.50;;;7.60;99.90;;;;;;5019844;28;20036;-40
2024/01/04 09:54:44;;;;;;;1.20;1.10;;;7.70;99.90;;;;;;5024185;28;20021;-39
2024/01/04 09:57:10;;;;;;;0.93;0.68;;;7.70;99.90;;;;;;5023370;28;20132;-38
2024/01/04 09:59:36;;;;;;;3.15;1.05;;;7.70;99.90;;;;;;5016741;28;20022;-38
2024/01/04 10:02:03;;;;;;;1.38;0.82;;;7.80;99.90;;;;;;5020494;28;20510;-40
2024/01/04 10:04:31;;;;;;;0.77;0.77;;;7.80;99.90;;;;;;5019917;28;20037;-37
2024/01/04 10:06:59;;;;;;;0.70;0.68;;;7.80;99.90;;;;;;5022686;28;20033;-38
2024/01/04 10:09:45;;;;;;;2.17;0.73;;;7.90;99.90;;;;;;5019765;28;20025;-38
2024/01/04 10:12:13;;;;;;;0.82;0.75;;;7.80;99.90;;;;;;5026838;28;20489;-39
2024/01/04 10:14:38;;;;;;;1.83;1.02;;;7.80;99.90;;;;;;5015982;28;20064;-40
2024/01/04 10:17:04;;;;;;;1.33;0.80;;;7.80;99.90;;;;;;5022724;28;20061;-40
2024/01/04 10:19:32;;;;;;;2.20;0.68;;;8.00;99.90;;;;;;5015247;28;20514;-39
2024/01/04 10:22:02;;;;;;;1.27;0.90;;;8.00;99.90;;;;;;5019754;28;20044;-32
2024/01/04 10:24:37;;;;;;;1.50;0.90;;;8.10;99.90;;;;;;5020148;28;20022;-37
2024/01/04 10:27:18;;;;;;;0.65;0.65;;;8.20;99.90;;;;;;5036082;28;20144;-34
2024/01/04 10:29:46;;;;;;;1.23;0.75;;;8.20;99.90;;;;;;5026208;28;20025;-34
2024/01/04 10:32:13;;;;;;;3.33;0.90;;;8.20;99.90;;;;;;5019024;28;20120;-32
2024/01/04 10:34:40;;;;;;;1.13;0.60;;;8.10;99.90;;;;;;5016190;28;20042;-34
2024/01/04 10:37:22;;;;;;;0.73;0.70;;;8.10;99.90;;;;;;5018768;28;20399;-33
2024/01/04 10:39:58;;;;;;;0.98;0.68;;;8.10;99.90;;;;;;5014134;28;20084;-33
2024/01/04 10:42:24;;;;;;;2.35;1.17;;;8.10;99.90;;;;;;5030567;28;20028;-32
2024/01/04 10:44:56;;;;;;;2.72;0.70;;;8.10;99.90;;;;;;5017669;28;20026;-32
2024/01/04 10:47:23;;;;;;;2.10;0.90;;;8.10;99.90;;;;;;5017545;28;20034;-33
2024/01/04 10:49:49;;;;;;;1.75;1.00;;;8.20;99.90;;;;;;5025304;28;20200;-35
2024/01/04 10:52:19;;;;;;;0.70;0.70;;;8.20;99.90;;;;;;5019266;28;20033;-32
2024/01/04 10:54:46;;;;;;;1.70;0.68;;;8.20;99.90;;;;;;5036636;28;20021;-32
2024/01/04 10:57:12;;;;;;;0.82;0.60;;;8.10;99.90;;;;;;5015314;28;20475;-32
2024/01/04 10:59:40;;;;;;;1.55;0.70;;;8.20;99.90;;;;;;5019541;28;20045;-31
2024/01/04 11:02:10;;;;;;;1.80;0.77;;;8.10;99.90;;;;;;5020457;28;20117;-32
2024/01/04 11:04:36;;;;;;;1.52;0.95;;;8.00;99.90;;;;;;5020317;28;20740;-34
2024/01/04 11:07:04;;;;;;;2.80;0.70;;;8.00;99.90;;;;;;5015142;28;20030;-34
2024/01/04 11:09:31;;;;;;;0.43;0.43;;;8.10;99.90;;;;;;5006224;28;20055;-35
2024/01/04 11:11:58;;;;;;;1.30;0.63;;;8.20;99.90;;;;;;5018279;28;20024;-33
2024/01/04 11:14:25;;;;;;;2.00;0.70;;;8.20;99.90;;;;;;5022428;28;20521;-33
2024/01/04 11:17:09;;;;;;;0.50;0.50;;;8.20;99.90;;;;;;5016061;28;20398;-32
2024/01/04 11:19:56;;;;;;;1.00;0.73;;;8.30;99.90;;;;;;5012810;28;20022;-32
2024/01/04 11:22:49;;;;;;;5.70;1.05;;;8.30;99.90;;;;;;5023148;28;20391;-34
2024/01/04 11:25:29;;;;;;;1.63;0.75;;;8.40;99.90;;;;;;5021724;28;20610;-33
2024/01/04 11:27:56;;;;;;;1.55;0.70;;;8.40;99.90;;;;;;5024563;28;20026;-33
2024/01/04 11:30:21;;;;;;;1.35;0.75;;;8.30;99.90;;;;;;5016190;28;20049;-40
2024/01/04 11:32:48;;;;;;;3.35;0.70;;;8.40;99.90;;;;;;5019281;28;20522;-39
2024/01/04 11:35:15;;;;;;;2.15;0.90;;;8.50;99.90;;;;;;5021206;28;20116;-37
2024/01/04 11:37:45;;;;;;;1.67;1.08;;;8.50;99.90;;;;;;5013855;28;20092;-37
2024/01/04 11:40:11;;;;;;;0.85;0.70;;;8.50;99.90;;;;;;5018792;28;20022;-39
2024/01/04 11:42:38;;;;;;;3.90;1.00;;;8.60;99.90;;;;;;5016598;28;20037;-40
2024/01/04 11:45:05;;;;;;;2.22;0.90;;;8.50;99.90;;;;;;5023976;28;20132;-41
2024/01/04 11:47:36;;;;;;;1.13;0.87;;;8.30;99.90;;;;;;5017015;28;20353;-39
2024/01/04 11:50:03;;;;;;;0.70;0.70;;;8.10;99.90;;;;;;5014290;28;20040;-41
2024/01/04 11:52:29;;;;;;;2.88;0.80;;;8.10;99.90;;;;;;5009797;28;20029;-36
2024/01/04 11:54:55;;;;;;;0.40;0.40;;;8.10;99.90;;;;;;5011026;28;20048;-38
2024/01/04 11:57:26;;;;;;;3.65;0.70;;;8.20;99.90;;;;;;5020449;28;20112;-39
2024/01/04 11:59:52;;;;;;;0.63;0.60;;;8.20;99.90;;;;;;5015494;28;20044;-37
2024/01/04 12:02:20;;;;;;;1.70;0.60;;;8.30;99.90;;;;;;5012317;28;20034;-42
2024/01/04 12:04:46;;;;;;;2.50;1.23;;;8.40;99.90;;;;;;5015172;28;20099;-41
2024/01/04 12:07:13;;;;;;;1.90;0.85;;;8.50;99.90;;;;;;5011366;28;20040;-40
2024/01/04 12:09:42;;;;;;;1.40;0.75;;;8.40;99.90;;;;;;5023885;28;20044;-41
2024/01/04 12:12:09;;;;;;;0.80;0.80;;;8.40;99.90;;;;;;5019899;28;20037;-42
2024/01/04 12:14:35;;;;;;;1.13;1.00;;;8.50;99.90;;;;;;5015566;28;20196;-41
2024/01/04 12:17:01;;;;;;;1.88;0.88;;;8.40;99.90;;;;;;5018542;28;20406;-40
2024/01/04 12:19:27;;;;;;;2.08;0.80;;;8.40;99.90;;;;;;5017027;28;20032;-41
2024/01/04 12:21:53;;;;;;;1.67;0.88;;;8.40;99.90;;;;;;5015621;28;20021;-37
2024/01/04 12:24:19;;;;;;;0.98;0.60;;;8.40;99.90;;;;;;5022956;28;20022;-40
2024/01/04 12:26:45;;;;;;;0.63;0.55;;;8.40;99.90;;;;;;5018841;28;20113;-42
2024/01/04 12:29:11;;;;;;;1.60;0.57;;;8.30;99.90;;;;;;5021913;28;20033;-39
2024/01/04 12:31:38;;;;;;;1.45;1.15;;;8.40;99.90;;;;;;5019778;28;20466;-39
2024/01/04 12:34:08;;;;;;;1.33;0.80;;;8.60;99.90;;;;;;5016262;28;20084;-36
2024/01/04 12:36:33;;;;;;;1.60;0.63;;;8.60;99.90;;;;;;5016226;28;20056;-40
2024/01/04 12:39:07;;;;;;;0.50;0.50;;;8.50;99.90;;;;;;5016595;28;21716;-39
2024/01/04 12:41:33;;;;;;;2.47;0.65;;;8.60;99.90;;;;;;5016371;28;20091;-39
2024/01/04 12:43:58;;;;;;;1.80;0.70;;;8.60;99.90;;;;;;5022790;28;20060;-40
2024/01/04 12:46:27;;;;;;;1.65;0.90;;;8.60;99.90;;;;;;5018018;28;20092;-39
2024/01/04 12:48:52;;;;;;;;;;;8.50;99.90;;;;;;5012836;28;20034;-36
2024/01/04 12:51:28;;;;;;;0.40;0.40;;;8.40;99.90;;;;;;5016080;28;19910;-36
2024/01/04 12:53:54;;;;;;;0.75;0.60;;;8.30;99.90;;;;;;5015291;28;20040;-36
2024/01/04 12:56:20;;;;;;;0.63;0.63;;;8.20;99.90;;;;;;5020216;28;20037;-40